Time;durP1;ratioP1;P1;durP2;ratioP2;P2;SDS_P1;SDS_P2;PMS_P1;PMS_P2;Temp;Humidity;BMP_temperature;BMP_pressure;BME280_temperature;BME280_humidity;BME280_pressure;Samples;Min_cycle;Max_cycle;Signal;HPM_P1;HPM_P2
2021/12/13 00:00:23;;;;;;;4.97;3.78;;;8.50;79.80;;;;;;5072136;28;20123;-59
2021/12/13 00:02:59;;;;;;;;;;;8.50;79.80;;;;;;5072985;28;20044;-59
2021/12/13 00:05:47;;;;;;;4.55;4.07;;;8.50;79.70;;;;;;5059905;28;19972;-61
2021/12/13 00:08:20;;;;;;;4.55;4.03;;;8.50;79.80;;;;;;5052487;28;20083;-58
2021/12/13 00:10:59;;;;;;;3.75;3.45;;;8.50;79.80;;;;;;5051801;28;20140;-59
2021/12/13 00:13:52;;;;;;;4.25;3.85;;;8.50;79.80;;;;;;5052476;28;20059;-57
2021/12/13 00:16:28;;;;;;;4.30;3.78;;;8.50;79.80;;;;;;5070117;28;20447;-60
2021/12/13 00:18:57;;;;;;;4.30;3.90;;;8.50;79.80;;;;;;5071677;28;20216;-57
2021/12/13 00:21:30;;;;;;;4.00;3.55;;;8.50;79.80;;;;;;5052130;28;20559;-60
2021/12/13 00:24:00;;;;;;;4.30;3.60;;;8.50;79.80;;;;;;5114769;27;20042;-59
2021/12/13 00:26:30;;;;;;;3.83;3.40;;;8.50;79.80;;;;;;5167590;27;20320;-60
2021/12/13 00:28:56;;;;;;;5.43;4.00;;;8.50;80.40;;;;;;5151689;27;20042;-60
2021/12/13 00:31:44;;;;;;;4.43;3.97;;;8.50;79.80;;;;;;5157525;27;20039;-58
2021/12/13 00:34:32;;;;;;;4.07;3.53;;;8.50;79.80;;;;;;5156076;27;20046;-59
2021/12/13 00:37:09;;;;;;;3.75;3.13;;;8.50;79.80;;;;;;5155973;27;20051;-58
2021/12/13 00:39:45;;;;;;;3.80;3.45;;;8.60;79.90;;;;;;5146273;27;20046;-60
2021/12/13 00:42:12;;;;;;;3.40;3.10;;;8.50;79.80;;;;;;5155554;27;20058;-60
2021/12/13 00:44:46;;;;;;;4.05;3.65;;;8.50;79.80;;;;;;5176269;27;20050;-60
2021/12/13 00:47:18;;;;;;;4.00;3.60;;;8.50;79.80;;;;;;5176712;27;20085;-60
2021/12/13 00:49:47;;;;;;;3.65;3.28;;;8.50;79.80;;;;;;5136525;27;20506;-60
2021/12/13 00:52:18;;;;;;;3.70;3.10;;;8.60;79.80;;;;;;5156613;27;20086;-59
2021/12/13 00:54:45;;;;;;;4.15;3.50;;;8.60;79.90;;;;;;5151723;27;20055;-58
2021/12/13 00:57:29;;;;;;;3.92;3.47;;;8.50;79.80;;;;;;5155369;27;20039;-58
2021/12/13 01:00:04;;;;;;;3.97;3.25;;;8.50;79.70;;;;;;5167669;27;20034;-58
2021/12/13 01:02:39;;;;;;;3.90;3.50;;;8.50;79.80;;;;;;5174960;27;20050;-59
2021/12/13 01:05:16;;;;;;;4.07;3.20;;;8.50;79.80;;;;;;5173525;27;20066;-60
2021/12/13 01:07:59;;;;;;;3.55;3.20;;;8.50;79.80;;;;;;5155802;27;20094;-60
2021/12/13 01:10:43;;;;;;;4.40;3.50;;;8.50;79.70;;;;;;5155425;27;20046;-60
2021/12/13 01:13:37;;;;;;;3.95;3.30;;;8.60;79.80;;;;;;5155767;27;20486;-61
2021/12/13 01:16:31;;;;;;;3.75;3.15;;;8.60;79.80;;;;;;5155467;27;20030;-59
2021/12/13 01:19:27;;;;;;;3.60;3.25;;;8.60;79.80;;;;;;5166028;27;20113;-60
2021/12/13 01:25:36;;;;;;;4.10;3.60;;;8.60;79.80;;;;;;5111243;28;20040;-60
2021/12/13 01:28:22;;;;;;;3.35;3.00;;;8.50;79.80;;;;;;5111274;28;20183;-58
2021/12/13 01:30:53;;;;;;;4.07;3.50;;;8.60;79.90;;;;;;5110852;28;20503;-60
2021/12/13 01:33:22;;;;;;;3.88;3.30;;;8.60;79.90;;;;;;5093694;28;20531;-57
2021/12/13 01:35:51;;;;;;;3.53;3.22;;;8.60;79.90;;;;;;5111352;28;20132;-60
2021/12/13 01:38:35;;;;;;;3.35;3.05;;;8.60;79.90;;;;;;5111454;28;20071;-60
2021/12/13 01:41:14;;;;;;;3.33;3.03;;;8.60;79.80;;;;;;5111571;28;20043;-60
2021/12/13 01:43:54;;;;;;;3.30;2.90;;;8.50;79.80;;;;;;5111278;28;20104;-60
2021/12/13 01:46:23;;;;;;;3.10;2.80;;;8.60;79.90;;;;;;5111423;28;20055;-59
2021/12/13 01:48:50;;;;;;;3.28;2.83;;;8.50;79.80;;;;;;5090795;28;20209;-58
2021/12/13 01:51:20;;;;;;;3.17;2.78;;;8.60;79.90;;;;;;5090292;28;20058;-60
2021/12/13 01:54:14;;;;;;;3.25;2.90;;;8.60;79.90;;;;;;5110940;28;20050;-60
2021/12/13 01:56:55;;;;;;;3.80;3.10;;;8.60;79.80;;;;;;5030161;28;20057;-60
2021/12/13 01:59:52;;;;;;;3.83;2.95;;;8.60;79.90;;;;;;5030321;28;20045;-59
2021/12/13 02:02:28;;;;;;;3.17;2.70;;;8.60;79.90;;;;;;5002684;28;20062;-59
2021/12/13 02:05:10;;;;;;;3.17;2.80;;;8.60;79.90;;;;;;4995215;28;20065;-60
2021/12/13 02:07:45;;;;;;;3.67;3.38;;;8.60;79.90;;;;;;4994179;28;20508;-60
2021/12/13 02:10:40;;;;;;;3.13;2.75;;;8.60;79.80;;;;;;5010220;28;20211;-59
2021/12/13 02:13:16;;;;;;;3.23;2.93;;;8.60;79.80;;;;;;5009913;28;20133;-60
2021/12/13 02:18:33;;;;;;;3.38;2.67;;;8.60;79.80;;;;;;4995975;28;19921;-60
2021/12/13 02:21:12;;;;;;;3.15;2.80;;;8.60;79.90;;;;;;5009785;28;20053;-59
2021/12/13 02:23:44;;;;;;;3.00;2.70;;;8.60;79.90;;;;;;5009868;28;20433;-58
2021/12/13 02:26:10;;;;;;;3.03;2.72;;;8.60;79.90;;;;;;5009950;28;20062;-60
2021/12/13 02:28:41;;;;;;;2.95;2.65;;;8.60;79.90;;;;;;5009960;28;20050;-57
2021/12/13 02:31:19;;;;;;;3.25;2.85;;;8.60;79.90;;;;;;5006504;28;20534;-59
2021/12/13 02:33:59;;;;;;;3.13;2.80;;;8.60;79.90;;;;;;5032678;28;20044;-58
2021/12/13 02:36:30;;;;;;;3.45;2.75;;;8.60;79.90;;;;;;5063533;28;20044;-60
2021/12/13 02:38:59;;;;;;;3.45;2.97;;;8.60;79.90;;;;;;5098720;27;20074;-60
2021/12/13 02:41:29;;;;;;;3.20;2.85;;;8.60;79.90;;;;;;5153684;27;20530;-58
2021/12/13 02:44:02;;;;;;;3.42;2.90;;;8.60;79.90;;;;;;5153529;27;20498;-59
2021/12/13 02:46:28;;;;;;;2.50;2.22;;;8.60;79.80;;;;;;5153635;27;20039;-57
2021/12/13 02:48:59;;;;;;;3.78;3.17;;;8.60;79.90;;;;;;5154175;27;20053;-60
2021/12/13 02:51:36;;;;;;;2.97;2.67;;;8.60;79.90;;;;;;5159313;27;20494;-59
2021/12/13 02:54:11;;;;;;;3.70;2.85;;;8.60;79.90;;;;;;5162850;27;20046;-59
2021/12/13 02:56:58;;;;;;;3.50;2.92;;;8.60;80.50;;;;;;5153710;27;20449;-60
2021/12/13 02:59:28;;;;;;;3.35;2.55;;;8.60;79.80;;;;;;5154873;27;20053;-60
2021/12/13 03:02:01;;;;;;;3.13;2.75;;;8.60;79.90;;;;;;5171322;27;20035;-60
2021/12/13 03:04:28;;;;;;;3.00;2.60;;;8.60;79.80;;;;;;5166598;27;20042;-59
2021/12/13 03:07:17;;;;;;;3.42;2.90;;;8.60;79.90;;;;;;5154606;27;20035;-59
2021/12/13 03:09:46;;;;;;;2.72;2.42;;;8.60;79.90;;;;;;5171417;27;20134;-60
2021/12/13 03:12:15;;;;;;;2.75;2.33;;;8.60;79.80;;;;;;5174812;27;20034;-58
2021/12/13 03:14:51;;;;;;;4.15;2.60;;;8.60;79.90;;;;;;5178360;27;20395;-60
2021/12/13 03:17:44;;;;;;;2.80;2.50;;;8.60;79.80;;;;;;5178660;27;20046;-58
2021/12/13 03:20:24;;;;;;;2.95;2.65;;;8.60;79.80;;;;;;5165219;27;20038;-57
2021/12/13 03:23:16;;;;;;;2.63;2.42;;;8.60;79.80;;;;;;5162515;27;20038;-59
2021/12/13 03:26:14;;;;;;;2.80;2.60;;;8.60;79.80;;;;;;5165728;27;20182;-59
2021/12/13 03:29:20;;;;;;;2.88;2.58;;;8.70;79.90;;;;;;5140044;27;20054;-60
2021/12/13 03:31:53;;;;;;;2.73;2.30;;;8.70;79.80;;;;;;5111529;28;20135;-60
2021/12/13 03:34:25;;;;;;;3.00;2.70;;;8.60;79.80;;;;;;5096479;28;20138;-60
2021/12/13 03:37:17;;;;;;;2.50;2.22;;;8.60;79.90;;;;;;5113002;28;20451;-61
2021/12/13 03:39:50;;;;;;;3.50;2.85;;;8.70;79.90;;;;;;5113642;28;20515;-60
2021/12/13 03:42:48;;;;;;;2.50;2.30;;;8.70;79.90;;;;;;5113488;28;20047;-60
2021/12/13 03:45:28;;;;;;;2.60;2.40;;;8.70;79.80;;;;;;5032432;28;20152;-61
2021/12/13 03:47:56;;;;;;;2.90;2.60;;;8.60;79.80;;;;;;5016539;28;20057;-60
2021/12/13 03:50:45;;;;;;;3.35;2.65;;;8.60;79.90;;;;;;5033048;28;20068;-59
2021/12/13 03:53:16;;;;;;;2.83;2.20;;;8.70;79.90;;;;;;5030474;28;20065;-59
2021/12/13 03:55:48;;;;;;;2.05;1.88;;;8.70;79.90;;;;;;5031236;28;20120;-58
2021/12/13 03:58:18;;;;;;;2.20;2.00;;;8.60;79.90;;;;;;5032096;28;20581;-60
2021/12/13 04:00:52;;;;;;;2.63;2.33;;;8.70;79.90;;;;;;5015796;28;20065;-60
2021/12/13 04:03:21;;;;;;;2.70;2.47;;;8.70;79.90;;;;;;5032815;28;20092;-60
2021/12/13 04:05:48;;;;;;;2.38;2.17;;;8.70;79.90;;;;;;5045036;28;20052;-60
2021/12/13 04:08:17;;;;;;;2.85;2.55;;;8.70;79.90;;;;;;5065573;28;20049;-58
2021/12/13 04:10:49;;;;;;;2.33;2.10;;;8.70;79.90;;;;;;5059805;28;20048;-59
2021/12/13 04:13:18;;;;;;;2.88;2.58;;;8.70;79.90;;;;;;5068807;28;20044;-60
2021/12/13 04:16:30;;;;;;;2.22;2.03;;;8.70;79.90;;;;;;5071907;28;20053;-60
2021/12/13 04:21:35;;;;;;;2.45;2.17;;;8.70;79.90;;;;;;5097927;27;20047;-60
2021/12/13 04:24:05;;;;;;;2.40;2.20;;;8.70;80.60;;;;;;5134302;27;20043;-59
2021/12/13 04:26:38;;;;;;;2.15;1.95;;;8.70;79.90;;;;;;5137224;27;20039;-59
2021/12/13 04:29:10;;;;;;;2.67;2.28;;;8.70;79.90;;;;;;5154279;27;20035;-60
2021/12/13 04:31:37;;;;;;;2.25;2.00;;;8.70;79.90;;;;;;5156122;27;20079;-60
2021/12/13 04:34:05;;;;;;;2.20;2.00;;;8.70;80.60;;;;;;5156049;27;20438;-59
2021/12/13 04:36:39;;;;;;;2.40;2.20;;;8.70;79.90;;;;;;5156477;27;20401;-59
2021/12/13 04:39:14;;;;;;;2.30;2.10;;;8.70;79.90;;;;;;5154311;27;20039;-60
2021/12/13 04:41:46;;;;;;;2.50;1.90;;;8.70;79.90;;;;;;5155368;27;20129;-60
2021/12/13 04:44:25;;;;;;;2.58;2.20;;;8.70;80.00;;;;;;5155283;27;20039;-59
2021/12/13 04:46:54;;;;;;;2.92;2.17;;;8.70;80.60;;;;;;5155852;27;20488;-60
2021/12/13 04:49:23;;;;;;;2.50;2.10;;;8.70;79.90;;;;;;5154273;27;20142;-59
2021/12/13 04:52:07;;;;;;;2.05;1.85;;;8.70;79.90;;;;;;5156091;27;20031;-60
2021/12/13 04:54:37;;;;;;;2.42;2.20;;;8.80;80.00;;;;;;5163454;27;20129;-60
2021/12/13 04:57:03;;;;;;;2.35;1.95;;;8.70;79.90;;;;;;5155015;27;20486;-59
2021/12/13 04:59:30;;;;;;;2.10;1.90;;;8.70;79.90;;;;;;5151383;27;20402;-60
2021/12/13 05:01:59;;;;;;;2.25;2.05;;;8.70;80.00;;;;;;5176617;27;20041;-59
2021/12/13 05:04:29;;;;;;;2.10;1.90;;;8.70;79.90;;;;;;5157318;27;20159;-59
2021/12/13 05:06:59;;;;;;;2.15;1.95;;;8.70;80.00;;;;;;5174573;27;20070;-60
2021/12/13 05:09:27;;;;;;;2.20;1.92;;;8.70;79.90;;;;;;5156575;27;20118;-59
2021/12/13 05:12:09;;;;;;;2.40;2.10;;;8.70;79.90;;;;;;5155905;27;20505;-60
2021/12/13 05:14:48;;;;;;;2.45;1.90;;;8.70;79.90;;;;;;5155361;27;20507;-60
2021/12/13 05:17:24;;;;;;;2.10;1.90;;;8.80;80.00;;;;;;5155528;27;20038;-60
2021/12/13 05:20:08;;;;;;;2.00;1.83;;;8.70;79.90;;;;;;5156407;27;20057;-60
2021/12/13 05:22:50;;;;;;;2.42;2.08;;;8.70;79.90;;;;;;5156532;27;20126;-60
2021/12/13 05:25:35;;;;;;;2.03;1.80;;;8.70;80.00;;;;;;5149836;27;20042;-59
2021/12/13 05:28:24;;;;;;;2.15;1.90;;;8.70;79.90;;;;;;5175080;27;20070;-60
2021/12/13 05:30:57;;;;;;;2.22;2.03;;;8.80;80.00;;;;;;5162528;27;20563;-57
2021/12/13 05:33:25;;;;;;;2.03;1.83;;;8.70;80.00;;;;;;5170430;27;20038;-60
2021/12/13 05:35:53;;;;;;;2.03;1.83;;;8.70;79.90;;;;;;5163208;27;20350;-60
2021/12/13 05:38:41;;;;;;;2.17;1.98;;;8.80;80.00;;;;;;5175348;27;20073;-60
2021/12/13 05:41:12;;;;;;;2.42;1.70;;;8.80;80.00;;;;;;5175462;27;20066;-60
2021/12/13 05:43:48;;;;;;;2.08;1.88;;;8.80;80.00;;;;;;5173999;27;20088;-60
2021/12/13 05:46:23;;;;;;;2.25;2.00;;;8.80;80.00;;;;;;5175508;27;20042;-60
2021/12/13 05:48:56;;;;;;;2.03;1.83;;;8.70;80.00;;;;;;5175564;27;20065;-60
2021/12/13 05:51:30;;;;;;;2.45;2.20;;;8.80;80.00;;;;;;5175744;27;20387;-61
2021/12/13 05:54:21;;;;;;;2.33;1.80;;;8.70;79.90;;;;;;5173886;27;20097;-59
2021/12/13 05:57:06;;;;;;;1.80;1.70;;;8.70;79.90;;;;;;5143221;27;20047;-59
2021/12/13 05:59:36;;;;;;;1.90;1.75;;;8.70;80.00;;;;;;5157346;27;20042;-60
2021/12/13 06:02:06;;;;;;;2.25;1.90;;;8.70;80.00;;;;;;5154925;27;20138;-59
2021/12/13 06:04:37;;;;;;;3.17;2.00;;;8.70;80.00;;;;;;5173975;27;20101;-60
2021/12/13 06:07:14;;;;;;;2.58;2.08;;;8.80;80.00;;;;;;5159619;27;20045;-60
2021/12/13 06:09:55;;;;;;;2.00;1.80;;;8.80;80.00;;;;;;5154317;27;20098;-60
2021/12/13 06:12:26;;;;;;;1.63;1.52;;;8.70;80.00;;;;;;5154636;27;20057;-60
2021/12/13 06:14:53;;;;;;;1.80;1.65;;;8.80;80.00;;;;;;5155310;27;20043;-60
2021/12/13 06:17:32;;;;;;;2.10;1.90;;;8.80;80.00;;;;;;5135312;27;20050;-59
2021/12/13 06:20:04;;;;;;;2.08;1.88;;;8.80;80.00;;;;;;5141920;27;20229;-60
2021/12/13 06:22:32;;;;;;;2.10;1.90;;;8.80;80.70;;;;;;5145430;27;20227;-59
2021/12/13 06:25:12;;;;;;;1.67;1.58;;;8.80;80.00;;;;;;5155324;27;20042;-60
2021/12/13 06:27:50;;;;;;;2.60;2.00;;;8.80;80.00;;;;;;5153942;27;20042;-60
2021/12/13 06:30:20;;;;;;;2.10;1.90;;;8.80;80.00;;;;;;5162202;27;20385;-59
2021/12/13 06:33:09;;;;;;;2.08;1.88;;;8.80;80.00;;;;;;5174097;27;20057;-60
2021/12/13 06:35:57;;;;;;;1.95;1.80;;;8.80;80.00;;;;;;5172203;27;20489;-60
2021/12/13 06:38:28;;;;;;;1.98;1.75;;;8.80;80.00;;;;;;5164741;27;20096;-60
2021/12/13 06:41:04;;;;;;;2.00;1.80;;;8.80;80.00;;;;;;5135291;27;20050;-59
2021/12/13 06:43:33;;;;;;;2.22;1.85;;;8.80;80.00;;;;;;5135049;27;20047;-58
2021/12/13 06:46:02;;;;;;;1.70;1.60;;;8.80;80.00;;;;;;5154745;27;20048;-58
2021/12/13 06:48:37;;;;;;;1.90;1.70;;;8.80;80.00;;;;;;5152017;27;20111;-59
2021/12/13 06:51:07;;;;;;;1.77;1.67;;;8.80;80.00;;;;;;5153906;27;20038;-58
2021/12/13 06:53:33;;;;;;;2.00;1.80;;;8.80;80.00;;;;;;5155425;27;20294;-59
2021/12/13 06:56:18;;;;;;;1.98;1.60;;;8.80;80.10;;;;;;5172765;27;20042;-59
2021/12/13 06:58:49;;;;;;;2.05;1.85;;;8.80;80.00;;;;;;5174296;27;20042;-59
2021/12/13 07:01:15;;;;;;;1.55;1.45;;;8.80;80.00;;;;;;5171606;27;20038;-56
2021/12/13 07:03:56;;;;;;;1.75;1.63;;;8.80;80.10;;;;;;5152962;27;20125;-58
2021/12/13 07:06:22;;;;;;;1.90;1.70;;;8.80;80.00;;;;;;5164497;27;20043;-58
2021/12/13 07:09:08;;;;;;;1.95;1.70;;;8.80;80.00;;;;;;5174495;27;20084;-59
2021/12/13 07:12:12;;;;;;;2.22;1.95;;;8.80;80.00;;;;;;5155264;27;20046;-58
2021/12/13 07:14:38;;;;;;;2.38;1.55;;;8.80;80.00;;;;;;5069246;28;20045;-59
2021/12/13 07:17:15;;;;;;;1.95;1.75;;;8.80;80.00;;;;;;5067566;28;20076;-56
2021/12/13 07:19:46;;;;;;;1.88;1.70;;;8.80;80.00;;;;;;5057460;28;20048;-57
2021/12/13 07:22:18;;;;;;;1.65;1.42;;;8.80;80.00;;;;;;5069130;28;20385;-57
2021/12/13 07:24:48;;;;;;;1.58;1.48;;;8.80;80.10;;;;;;5053044;28;20581;-58
2021/12/13 07:27:22;;;;;;;2.03;1.70;;;8.80;80.00;;;;;;5049239;28;20068;-58
2021/12/13 07:29:50;;;;;;;1.80;1.70;;;8.80;80.10;;;;;;5049319;28;20049;-60
2021/12/13 07:32:16;;;;;;;2.30;1.80;;;8.80;80.10;;;;;;5049218;28;20049;-59
2021/12/13 07:34:47;;;;;;;1.85;1.70;;;8.80;80.10;;;;;;5049191;28;20048;-59
2021/12/13 07:37:13;;;;;;;1.77;1.58;;;8.80;80.00;;;;;;5067406;28;20044;-60
2021/12/13 07:39:39;;;;;;;2.13;1.90;;;8.70;80.00;;;;;;5068533;28;20378;-59
2021/12/13 07:42:08;;;;;;;1.92;1.65;;;8.80;80.10;;;;;;5068526;28;20056;-59
2021/12/13 07:44:41;;;;;;;2.15;1.80;;;8.80;80.00;;;;;;5067249;28;20040;-58
2021/12/13 07:47:21;;;;;;;1.75;1.63;;;8.80;80.00;;;;;;5066829;28;20044;-59
2021/12/13 07:49:50;;;;;;;2.17;1.60;;;8.90;80.10;;;;;;5154167;27;20043;-60
2021/12/13 07:52:33;;;;;;;1.92;1.70;;;8.80;80.10;;;;;;5153050;27;20462;-59
2021/12/13 07:55:22;;;;;;;1.73;1.63;;;8.80;80.10;;;;;;5149353;27;20098;-59
2021/12/13 07:57:49;;;;;;;2.00;1.65;;;8.90;80.00;;;;;;5153444;27;20402;-59
2021/12/13 08:00:28;;;;;;;1.70;1.60;;;8.80;80.10;;;;;;5157596;27;20045;-59
2021/12/13 08:03:00;;;;;;;1.50;1.40;;;8.80;80.10;;;;;;5172123;27;20026;-58
2021/12/13 08:05:37;;;;;;;1.80;1.70;;;8.80;80.10;;;;;;5170667;27;20042;-58
2021/12/13 08:08:04;;;;;;;1.67;1.58;;;8.90;80.20;;;;;;5156792;27;20623;-59
2021/12/13 08:10:38;;;;;;;2.13;1.83;;;8.80;80.10;;;;;;5157825;27;20054;-59
2021/12/13 08:13:17;;;;;;;1.70;1.50;;;8.80;80.10;;;;;;5156702;27;20047;-60
2021/12/13 08:15:53;;;;;;;1.70;1.60;;;8.80;80.10;;;;;;5169096;27;20045;-60
2021/12/13 08:18:41;;;;;;;1.63;1.40;;;8.80;80.10;;;;;;5177698;27;20073;-60
2021/12/13 08:21:26;;;;;;;2.05;1.73;;;8.80;80.10;;;;;;5162335;27;20035;-58
2021/12/13 08:24:02;;;;;;;2.10;1.70;;;8.90;80.10;;;;;;5136914;27;20057;-60
2021/12/13 08:26:30;;;;;;;;;;;8.90;80.10;;;;;;5156748;27;20034;-59
2021/12/13 08:28:59;;;;;;;1.95;1.60;;;8.80;80.00;;;;;;5170423;27;19922;-59
2021/12/13 08:31:25;;;;;;;1.98;1.70;;;8.80;80.10;;;;;;5142126;27;20146;-59
2021/12/13 08:34:00;;;;;;;1.80;1.52;;;8.80;80.10;;;;;;5149613;27;20133;-58
2021/12/13 08:36:33;;;;;;;1.95;1.70;;;8.80;80.10;;;;;;5154963;27;20438;-56
2021/12/13 08:39:21;;;;;;;1.70;1.50;;;8.80;80.10;;;;;;5137590;27;20057;-56
2021/12/13 08:42:01;;;;;;;1.60;1.50;;;8.90;80.10;;;;;;5151461;27;20050;-57
2021/12/13 08:44:38;;;;;;;1.77;1.48;;;8.90;80.20;;;;;;5152171;27;20446;-56
2021/12/13 08:47:09;;;;;;;1.70;1.60;;;8.80;80.10;;;;;;5144329;27;20039;-56
2021/12/13 08:49:52;;;;;;;1.60;1.50;;;8.90;80.20;;;;;;5157519;27;20043;-57
2021/12/13 08:52:31;;;;;;;2.15;1.80;;;8.90;80.20;;;;;;5148785;27;20101;-58
2021/12/13 08:55:18;;;;;;;2.15;1.80;;;8.90;80.20;;;;;;5156305;27;20042;-59
2021/12/13 08:58:07;;;;;;;1.95;1.75;;;8.80;80.10;;;;;;5154283;27;20071;-57
2021/12/13 09:00:44;;;;;;;1.60;1.40;;;8.90;80.10;;;;;;5165920;27;20042;-57
2021/12/13 09:03:10;;;;;;;1.58;1.48;;;8.90;80.20;;;;;;5176013;27;20508;-58
2021/12/13 09:05:59;;;;;;;1.75;1.52;;;8.90;80.20;;;;;;5151488;27;20038;-57
2021/12/13 09:08:33;;;;;;;1.55;1.45;;;8.90;80.20;;;;;;5151025;27;20406;-58
2021/12/13 09:11:14;;;;;;;1.58;1.38;;;8.90;80.20;;;;;;5166209;27;20449;-58
2021/12/13 09:13:59;;;;;;;1.88;1.50;;;8.90;80.20;;;;;;5147450;27;20053;-58
2021/12/13 09:16:45;;;;;;;2.15;1.85;;;8.90;80.20;;;;;;5150110;27;20138;-59
2021/12/13 09:19:17;;;;;;;1.73;1.50;;;8.90;80.20;;;;;;5142143;27;20443;-59
2021/12/13 09:21:53;;;;;;;1.42;1.33;;;8.90;80.20;;;;;;5155229;27;20051;-58
2021/12/13 09:24:50;;;;;;;2.13;1.90;;;8.90;80.20;;;;;;5153513;27;20035;-59
2021/12/13 09:27:33;;;;;;;2.10;1.70;;;8.90;80.20;;;;;;5093228;28;20062;-56
2021/12/13 09:30:11;;;;;;;2.00;1.55;;;8.90;80.20;;;;;;5109411;28;20050;-59
2021/12/13 09:32:49;;;;;;;2.75;1.55;;;8.90;80.20;;;;;;5110138;28;20170;-58
2021/12/13 09:35:40;;;;;;;2.25;1.80;;;8.90;80.20;;;;;;5100072;28;20120;-59
2021/12/13 09:38:17;;;;;;;1.73;1.50;;;8.90;80.20;;;;;;5091236;28;20048;-59
2021/12/13 09:40:49;;;;;;;2.42;1.40;;;8.90;80.20;;;;;;5091631;28;20044;-59
2021/12/13 09:43:16;;;;;;;1.80;1.60;;;8.90;80.20;;;;;;5090488;28;20154;-58
2021/12/13 09:45:48;;;;;;;1.73;1.60;;;8.90;80.20;;;;;;5101255;28;20051;-59
2021/12/13 09:48:28;;;;;;;1.40;1.30;;;8.90;80.20;;;;;;5107672;27;20075;-58
2021/12/13 09:50:59;;;;;;;1.98;1.77;;;8.90;80.20;;;;;;5099479;28;20446;-58
2021/12/13 09:53:31;;;;;;;2.78;1.30;;;8.90;80.30;;;;;;5110022;28;20067;-58
2021/12/13 09:55:59;;;;;;;1.70;1.55;;;8.90;80.20;;;;;;5110711;28;20044;-59
2021/12/13 09:58:39;;;;;;;2.17;1.50;;;8.90;80.20;;;;;;5110464;28;20054;-57
2021/12/13 10:01:12;;;;;;;1.48;1.30;;;8.90;80.20;;;;;;5108715;28;20048;-57
2021/12/13 10:04:07;;;;;;;1.95;1.60;;;8.90;80.20;;;;;;5121157;27;20066;-59
2021/12/13 10:06:46;;;;;;;2.10;1.70;;;8.90;80.10;;;;;;5057148;28;20052;-58
2021/12/13 10:09:20;;;;;;;1.60;1.40;;;8.90;80.20;;;;;;5069710;28;20123;-59
2021/12/13 10:11:45;;;;;;;1.50;1.40;;;8.90;80.20;;;;;;5051595;28;20475;-57
2021/12/13 10:14:13;;;;;;;1.33;1.23;;;9.00;80.20;;;;;;5070233;28;20148;-58
2021/12/13 10:16:43;;;;;;;1.98;1.60;;;8.90;80.20;;;;;;5069172;28;20084;-58
2021/12/13 10:19:14;;;;;;;1.88;1.55;;;8.90;80.20;;;;;;5070081;28;20054;-59
2021/12/13 10:21:43;;;;;;;1.92;1.65;;;8.90;80.20;;;;;;5069889;28;20535;-57
2021/12/13 10:24:29;;;;;;;1.90;1.50;;;9.00;80.30;;;;;;5051006;28;20088;-59
2021/12/13 10:26:58;;;;;;;1.88;1.65;;;8.90;80.20;;;;;;5058234;28;20393;-59
2021/12/13 10:29:25;;;;;;;2.00;1.45;;;8.90;80.20;;;;;;5070868;28;20119;-57
2021/12/13 10:31:59;;;;;;;2.00;1.63;;;9.00;80.20;;;;;;5069240;28;20041;-59
2021/12/13 10:34:30;;;;;;;1.48;1.27;;;8.90;80.20;;;;;;5057767;28;20147;-57
2021/12/13 10:37:06;;;;;;;1.90;1.40;;;9.00;80.20;;;;;;5033564;28;20060;-59
2021/12/13 10:39:36;;;;;;;1.52;1.40;;;8.90;80.20;;;;;;5049346;28;20047;-57
2021/12/13 10:42:11;;;;;;;1.52;1.35;;;8.90;80.20;;;;;;5069018;27;20130;-58
2021/12/13 10:44:43;;;;;;;2.58;1.90;;;9.00;80.20;;;;;;5161555;27;20481;-57
2021/12/13 10:47:15;;;;;;;1.58;1.48;;;9.00;80.20;;;;;;5163076;27;20082;-58
2021/12/13 10:49:44;;;;;;;1.95;1.60;;;8.90;80.20;;;;;;5159440;27;20043;-58
2021/12/13 10:52:16;;;;;;;2.53;1.52;;;8.90;80.20;;;;;;5154096;27;20042;-58
2021/12/13 10:54:47;;;;;;;1.65;1.50;;;8.90;80.20;;;;;;5159051;27;20054;-58
2021/12/13 10:57:20;;;;;;;5.22;3.80;;;8.90;80.20;;;;;;5174948;27;20047;-55
2021/12/13 10:59:49;;;;;;;2.60;2.30;;;8.90;80.70;;;;;;5169019;27;20046;-56
2021/12/13 11:02:23;;;;;;;4.60;2.90;;;9.00;81.20;;;;;;5169377;27;20052;-56
2021/12/13 11:05:09;;;;;;;5.70;3.72;;;9.00;81.00;;;;;;5163619;27;20062;-52
2021/12/13 11:07:35;;;;;;;4.80;4.30;;;9.00;80.80;;;;;;5153687;27;20125;-52
2021/12/13 11:10:06;;;;;;;5.13;3.83;;;9.00;80.80;;;;;;5153735;27;20038;-57
2021/12/13 11:12:40;;;;;;;5.88;4.53;;;9.00;80.80;;;;;;5153431;27;20050;-58
2021/12/13 11:15:11;;;;;;;8.20;4.13;;;9.00;80.80;;;;;;5154354;27;20030;-59
2021/12/13 11:17:37;;;;;;;4.97;4.15;;;9.00;80.90;;;;;;5153602;27;20053;-58
2021/12/13 11:20:26;;;;;;;4.88;4.10;;;9.00;80.70;;;;;;5133907;27;20046;-59
2021/12/13 11:22:52;;;;;;;4.35;3.72;;;9.00;80.60;;;;;;5153096;27;20118;-58
2021/12/13 11:25:34;;;;;;;5.80;4.38;;;9.00;80.70;;;;;;5153971;27;20470;-57
2021/12/13 11:28:00;;;;;;;5.18;4.07;;;9.00;80.70;;;;;;5153567;27;20083;-58
2021/12/13 11:30:30;;;;;;;4.43;3.72;;;9.00;80.70;;;;;;5153440;27;20043;-59
2021/12/13 11:32:58;;;;;;;5.88;3.72;;;9.00;80.60;;;;;;5153286;27;20034;-58
2021/12/13 11:36:05;;;;;;;5.50;4.22;;;9.00;80.60;;;;;;5157011;27;20141;-58
2021/12/13 11:38:49;;;;;;;4.82;3.75;;;9.00;80.50;;;;;;5157015;27;20505;-58
2021/12/13 11:41:21;;;;;;;4.10;3.38;;;9.00;80.60;;;;;;5157370;27;20043;-58
2021/12/13 11:44:04;;;;;;;4.43;3.50;;;9.00;80.60;;;;;;5157004;27;20078;-58
2021/12/13 11:47:07;;;;;;;4.88;3.85;;;9.00;80.60;;;;;;5157311;27;20069;-57
2021/12/13 11:49:48;;;;;;;4.13;3.67;;;9.00;80.50;;;;;;5157014;27;20042;-58
2021/12/13 11:52:45;;;;;;;4.55;3.60;;;9.00;80.60;;;;;;5156680;27;20075;-58
2021/12/13 11:55:29;;;;;;;4.05;3.65;;;9.00;80.50;;;;;;5138151;27;20047;-58
2021/12/13 11:58:09;;;;;;;4.60;3.35;;;9.00;80.50;;;;;;5157700;27;20045;-58
2021/12/13 12:01:02;;;;;;;4.88;3.45;;;9.00;80.50;;;;;;5138197;27;20078;-58
2021/12/13 12:04:05;;;;;;;4.10;3.67;;;9.00;80.50;;;;;;5137810;27;20053;-58
2021/12/13 12:06:58;;;;;;;3.53;3.17;;;9.00;80.40;;;;;;5156372;27;20398;-58
2021/12/13 12:09:55;;;;;;;4.00;3.58;;;9.00;80.50;;;;;;5157668;27;20043;-58
2021/12/13 12:12:50;;;;;;;4.10;2.97;;;9.00;80.50;;;;;;5138088;27;20081;-58
2021/12/13 12:15:17;;;;;;;3.97;3.40;;;9.00;80.50;;;;;;5137720;27;20486;-58
2021/12/13 12:17:43;;;;;;;4.53;3.42;;;9.00;80.50;;;;;;5156443;27;20427;-57
2021/12/13 12:20:13;;;;;;;4.38;3.28;;;9.00;80.60;;;;;;5138461;27;20099;-58
2021/12/13 12:23:01;;;;;;;4.32;3.17;;;9.10;80.60;;;;;;5155889;27;20058;-59
2021/12/13 12:25:31;;;;;;;3.92;3.38;;;9.10;81.10;;;;;;5137057;27;20100;-58
2021/12/13 12:28:03;;;;;;;4.93;3.22;;;9.00;80.50;;;;;;5156490;27;20095;-58
2021/12/13 12:30:35;;;;;;;4.00;3.20;;;9.00;80.50;;;;;;5157207;27;20406;-58
2021/12/13 12:33:07;;;;;;;3.65;3.33;;;9.00;80.50;;;;;;5156066;27;20050;-58
2021/12/13 12:35:47;;;;;;;3.50;3.03;;;9.10;80.50;;;;;;5137444;27;20145;-58
2021/12/13 12:39:03;;;;;;;4.32;2.95;;;9.10;80.50;;;;;;5155633;27;20039;-59
2021/12/13 12:41:40;;;;;;;3.35;3.03;;;9.10;80.40;;;;;;5053241;28;20053;-58
2021/12/13 12:44:05;;;;;;;3.20;2.90;;;9.10;80.50;;;;;;5051792;28;20115;-57
2021/12/13 12:46:40;;;;;;;3.05;2.75;;;9.00;80.50;;;;;;5050684;28;20497;-58
2021/12/13 12:49:20;;;;;;;3.35;2.85;;;9.10;80.50;;;;;;5051806;28;20049;-57
2021/12/13 12:51:46;;;;;;;3.97;2.90;;;9.10;80.50;;;;;;5050463;28;20095;-56
2021/12/13 12:54:15;;;;;;;4.25;2.83;;;9.10;80.50;;;;;;5070469;28;20102;-56
2021/12/13 12:56:46;;;;;;;3.47;2.83;;;9.10;80.50;;;;;;5071654;28;20048;-57
2021/12/13 12:59:34;;;;;;;2.90;2.60;;;9.10;80.50;;;;;;5070625;28;20503;-57
2021/12/13 13:02:09;;;;;;;3.38;2.75;;;9.10;80.50;;;;;;5055990;28;20119;-56
2021/12/13 13:04:42;;;;;;;3.15;2.65;;;9.10;80.50;;;;;;5048201;28;20127;-56
2021/12/13 13:07:13;;;;;;;3.25;2.90;;;9.10;80.50;;;;;;5065847;28;20040;-57
2021/12/13 13:09:44;;;;;;;3.17;2.72;;;9.10;80.50;;;;;;5065644;28;20078;-58
2021/12/13 13:12:14;;;;;;;4.20;2.88;;;9.10;80.50;;;;;;5054317;28;20049;-57
2021/12/13 13:15:05;;;;;;;3.08;2.78;;;9.10;80.40;;;;;;5054417;28;20132;-58
2021/12/13 13:17:33;;;;;;;3.30;2.35;;;9.10;80.40;;;;;;5139480;27;20055;-58
2021/12/13 13:20:05;;;;;;;3.75;3.20;;;9.10;80.50;;;;;;5136690;27;20055;-58
2021/12/13 13:22:35;;;;;;;2.90;2.60;;;9.20;80.50;;;;;;5164599;27;20038;-58
2021/12/13 13:25:07;;;;;;;3.33;2.55;;;9.10;80.50;;;;;;5176640;27;20050;-58
2021/12/13 13:27:33;;;;;;;3.50;2.60;;;9.10;80.50;;;;;;5175773;27;20404;-58
2021/12/13 13:30:00;;;;;;;3.05;2.58;;;9.10;80.50;;;;;;5157379;27;20078;-58
2021/12/13 13:32:27;;;;;;;3.38;2.50;;;9.10;80.40;;;;;;5174419;27;20085;-57
2021/12/13 13:34:57;;;;;;;3.00;2.70;;;9.10;80.40;;;;;;5176200;27;20117;-58
2021/12/13 13:37:29;;;;;;;3.13;2.63;;;9.10;80.40;;;;;;5139357;27;20085;-58
2021/12/13 13:39:59;;;;;;;3.33;2.97;;;9.10;80.40;;;;;;5136046;27;20178;-58
2021/12/13 13:42:34;;;;;;;3.08;2.75;;;9.10;80.40;;;;;;5154281;27;20061;-57
2021/12/13 13:45:06;;;;;;;;;;;9.10;80.40;;;;;;5137830;27;20042;-57
2021/12/13 13:47:38;;;;;;;2.88;2.58;;;9.10;80.30;;;;;;5118798;27;20015;-58
2021/12/13 13:50:22;;;;;;;4.13;3.30;;;9.10;80.40;;;;;;5136375;27;20054;-56
2021/12/13 13:52:50;;;;;;;4.50;3.17;;;9.10;81.10;;;;;;5154372;27;20042;-57